Time;durP1;ratioP1;P1;durP2;ratioP2;P2;SDS_P1;SDS_P2;PMS_P1;PMS_P2;Temp;Humidity;BMP_temperature;BMP_pressure;BME280_temperature;BME280_humidity;BME280_pressure;Samples;Min_cycle;Max_cycle;Signal;HPM_P1;HPM_P2
2023/10/21 00:00:17;;;;;;;16.73;9.13;;;11.10;99.90;;;;;;5071896;28;20036;-74
2023/10/21 00:02:43;;;;;;;17.23;8.65;;;11.10;99.90;;;;;;5072331;28;20044;-74
2023/10/21 00:05:09;;;;;;;15.65;8.80;;;11.00;99.90;;;;;;5071717;28;20378;-74
2023/10/21 00:07:34;;;;;;;13.77;8.57;;;11.00;99.90;;;;;;5037456;28;20470;-75
2023/10/21 00:10:00;;;;;;;20.00;8.73;;;10.90;99.90;;;;;;5072189;28;20044;-75
2023/10/21 00:12:26;;;;;;;15.68;8.88;;;10.90;99.90;;;;;;5053822;28;20040;-75
2023/10/21 00:14:52;;;;;;;19.80;9.82;;;10.90;99.90;;;;;;5071728;28;20102;-74
2023/10/21 00:17:17;;;;;;;17.35;9.15;;;10.90;99.90;;;;;;5071936;28;20040;-75
2023/10/21 00:19:43;;;;;;;17.92;9.93;;;10.90;99.90;;;;;;5071353;28;20044;-74
2023/10/21 00:22:10;;;;;;;21.38;9.70;;;10.80;99.90;;;;;;5071716;28;20043;-74
2023/10/21 00:24:35;;;;;;;15.25;8.68;;;10.80;99.90;;;;;;5071655;28;20078;-75
2023/10/21 00:27:01;;;;;;;18.52;9.70;;;10.80;99.90;;;;;;5053355;28;20044;-75
2023/10/21 00:29:27;;;;;;;18.50;9.75;;;10.80;99.90;;;;;;5071370;28;20050;-76
2023/10/21 00:31:53;;;;;;;18.95;9.82;;;10.80;99.90;;;;;;5071933;28;20130;-74
2023/10/21 00:34:18;;;;;;;18.40;11.05;;;10.80;99.90;;;;;;5071308;28;20488;-75
2023/10/21 00:36:44;;;;;;;21.38;10.05;;;10.70;99.90;;;;;;5071370;28;20056;-75
2023/10/21 00:39:12;;;;;;;19.80;9.88;;;10.70;99.90;;;;;;5053457;28;20051;-76
2023/10/21 00:41:39;;;;;;;18.65;9.82;;;10.70;99.90;;;;;;5071128;28;20097;-74
2023/10/21 00:44:05;;;;;;;17.55;10.18;;;10.70;99.90;;;;;;5071432;28;20045;-76
2023/10/21 00:46:31;;;;;;;18.15;9.73;;;10.70;99.90;;;;;;5071282;28;20536;-76
2023/10/21 00:48:57;;;;;;;17.75;9.98;;;10.60;99.90;;;;;;5070921;28;20058;-74
2023/10/21 00:51:25;;;;;;;22.38;9.88;;;10.60;99.90;;;;;;5071264;28;20041;-75
2023/10/21 00:53:52;;;;;;;17.05;10.20;;;10.60;99.90;;;;;;5053063;28;20050;-75
2023/10/21 00:56:18;;;;;;;18.88;10.63;;;10.60;99.90;;;;;;5071069;28;20048;-74
2023/10/21 00:58:44;;;;;;;17.83;8.90;;;10.50;99.90;;;;;;5070926;28;20040;-76
2023/10/21 01:01:10;;;;;;;14.52;9.30;;;10.50;99.90;;;;;;5052877;28;20098;-74
2023/10/21 01:03:37;;;;;;;16.30;9.90;;;10.40;99.90;;;;;;5070591;28;20564;-76
2023/10/21 01:06:03;;;;;;;14.27;9.07;;;10.50;99.90;;;;;;5070778;28;20123;-74
2023/10/21 01:08:29;;;;;;;15.63;9.18;;;10.50;99.90;;;;;;5036116;28;20484;-75
2023/10/21 01:10:56;;;;;;;14.70;8.85;;;10.40;99.90;;;;;;5052590;28;20051;-75
2023/10/21 01:13:22;;;;;;;18.63;9.13;;;10.40;99.90;;;;;;5070668;28;20455;-75
2023/10/21 01:15:48;;;;;;;16.52;8.48;;;10.40;99.90;;;;;;5070581;28;20029;-75
2023/10/21 01:18:13;;;;;;;17.55;10.25;;;10.50;99.90;;;;;;5070490;28;20082;-75
2023/10/21 01:20:41;;;;;;;19.92;9.15;;;10.50;99.90;;;;;;5052324;28;20159;-74
2023/10/21 01:23:07;;;;;;;17.75;9.63;;;10.50;99.90;;;;;;5070736;28;20116;-75
2023/10/21 01:25:33;;;;;;;15.65;8.57;;;10.50;99.90;;;;;;5070304;28;20049;-75
2023/10/21 01:27:59;;;;;;;16.33;8.52;;;10.40;99.90;;;;;;5070569;28;20181;-74
2023/10/21 01:30:25;;;;;;;15.00;8.70;;;10.40;99.90;;;;;;5070211;28;20041;-75
2023/10/21 01:32:51;;;;;;;16.35;8.05;;;10.40;99.90;;;;;;5070017;28;20044;-76
2023/10/21 01:35:17;;;;;;;17.65;8.80;;;10.40;99.90;;;;;;5070348;28;20115;-75
2023/10/21 01:37:45;;;;;;;17.52;8.57;;;10.50;99.90;;;;;;5069859;28;20055;-75
2023/10/21 01:40:12;;;;;;;14.98;8.38;;;10.40;99.90;;;;;;5069210;28;20766;-74
2023/10/21 01:42:38;;;;;;;14.07;9.20;;;10.40;99.90;;;;;;5070522;28;20039;-75
2023/10/21 01:45:04;;;;;;;16.58;8.65;;;10.40;99.90;;;;;;5069985;28;20146;-74
2023/10/21 01:47:30;;;;;;;12.95;7.40;;;10.30;99.90;;;;;;5069769;28;20052;-75
2023/10/21 01:49:59;;;;;;;12.25;7.68;;;10.30;99.90;;;;;;5070202;28;20048;-75
2023/10/21 01:52:25;;;;;;;13.98;7.68;;;10.20;99.90;;;;;;5051715;28;20048;-74
2023/10/21 01:54:53;;;;;;;12.73;7.68;;;10.20;99.90;;;;;;5070002;28;20040;-75
2023/10/21 01:57:19;;;;;;;18.88;7.90;;;10.20;99.90;;;;;;5069696;28;20037;-74
2023/10/21 01:59:45;;;;;;;12.75;8.48;;;10.10;99.90;;;;;;5069718;28;20040;-75
2023/10/21 02:02:11;;;;;;;13.10;8.02;;;10.10;99.90;;;;;;5069760;28;20051;-75
2023/10/21 02:04:37;;;;;;;14.73;9.25;;;10.20;99.90;;;;;;5069690;28;20127;-75
2023/10/21 02:07:03;;;;;;;14.43;7.90;;;10.10;99.90;;;;;;5069647;28;20040;-75
2023/10/21 02:09:29;;;;;;;16.30;8.70;;;10.10;99.90;;;;;;5070075;28;20442;-76
2023/10/21 02:11:55;;;;;;;13.10;8.55;;;10.10;99.90;;;;;;5069594;28;20094;-75
2023/10/21 02:14:24;;;;;;;15.32;7.60;;;10.10;99.90;;;;;;5070379;28;20047;-75
2023/10/21 02:16:52;;;;;;;13.65;7.45;;;10.10;99.90;;;;;;5070240;28;20562;-75
2023/10/21 02:19:18;;;;;;;12.50;8.55;;;10.00;99.90;;;;;;5069954;28;20051;-76
2023/10/21 02:21:43;;;;;;;16.67;8.25;;;10.00;99.90;;;;;;5072672;28;20041;-75
2023/10/21 02:24:09;;;;;;;15.75;8.90;;;10.00;99.90;;;;;;5077772;28;20048;-76
2023/10/21 02:26:35;;;;;;;14.45;8.35;;;10.10;99.90;;;;;;5071696;28;20052;-75
2023/10/21 02:29:01;;;;;;;16.05;9.20;;;10.10;99.90;;;;;;5069593;28;20072;-75
2023/10/21 02:31:26;;;;;;;14.10;8.20;;;10.00;99.90;;;;;;5051324;28;20049;-75
2023/10/21 02:33:52;;;;;;;14.93;9.27;;;10.00;99.90;;;;;;5069348;28;20265;-74
2023/10/21 02:36:18;;;;;;;11.57;8.23;;;10.00;99.90;;;;;;5069143;28;20076;-73
2023/10/21 02:38:45;;;;;;;17.73;8.43;;;10.00;99.90;;;;;;5069091;28;20158;-76
2023/10/21 02:41:11;;;;;;;15.52;8.88;;;10.10;99.90;;;;;;5069154;28;20041;-75
2023/10/21 02:43:37;;;;;;;12.40;8.48;;;10.20;99.90;;;;;;5069289;28;20051;-74
2023/10/21 02:46:10;;;;;;;17.85;10.68;;;10.20;99.90;;;;;;5052136;28;20403;-74
2023/10/21 02:48:37;;;;;;;18.45;9.27;;;10.20;99.90;;;;;;5069423;28;20115;-75
2023/10/21 02:51:14;;;;;;;16.42;8.73;;;10.20;99.90;;;;;;5068700;28;20067;-74
2023/10/21 02:53:41;;;;;;;15.88;8.43;;;10.20;99.90;;;;;;5069039;28;20048;-75
2023/10/21 02:56:07;;;;;;;16.73;9.57;;;10.10;99.90;;;;;;5068879;28;20041;-74
2023/10/21 02:58:36;;;;;;;12.80;8.10;;;10.10;99.90;;;;;;5068688;28;20513;-75
2023/10/21 03:01:12;;;;;;;15.27;8.82;;;10.10;99.90;;;;;;5069004;28;20040;-74
2023/10/21 03:03:37;;;;;;;17.08;9.10;;;10.10;99.90;;;;;;5068915;28;20041;-75
2023/10/21 03:06:03;;;;;;;15.52;10.48;;;10.10;99.90;;;;;;5051158;28;20044;-75
2023/10/21 03:08:29;;;;;;;16.75;9.10;;;10.10;99.90;;;;;;5068919;28;20045;-75
2023/10/21 03:10:55;;;;;;;15.68;9.85;;;10.10;99.90;;;;;;5068704;28;20056;-75
2023/10/21 03:13:20;;;;;;;17.27;9.00;;;10.20;99.90;;;;;;5068931;28;20036;-74
2023/10/21 03:15:46;;;;;;;14.65;9.63;;;10.20;99.90;;;;;;5068804;28;20136;-74
2023/10/21 03:18:12;;;;;;;14.90;8.88;;;10.20;99.90;;;;;;5034208;28;20049;-75
2023/10/21 03:20:38;;;;;;;18.33;9.20;;;10.20;99.90;;;;;;5068650;28;20033;-74
2023/10/21 03:23:04;;;;;;;15.15;9.48;;;10.20;99.90;;;;;;5068900;28;20086;-75
2023/10/21 03:25:30;;;;;;;15.80;9.02;;;10.20;99.90;;;;;;5068814;28;20043;-75
2023/10/21 03:27:56;;;;;;;12.85;8.45;;;10.20;99.90;;;;;;5034120;28;20124;-75
2023/10/21 03:30:21;;;;;;;15.80;9.35;;;10.30;99.90;;;;;;5068990;28;20053;-75
2023/10/21 03:32:47;;;;;;;14.95;8.45;;;10.30;99.90;;;;;;5034434;28;20044;-75
2023/10/21 03:35:13;;;;;;;13.73;8.48;;;10.30;99.90;;;;;;5050732;28;20048;-74
2023/10/21 03:37:39;;;;;;;15.23;8.52;;;10.30;99.90;;;;;;5068430;28;20440;-75
2023/10/21 03:40:07;;;;;;;16.38;9.80;;;10.40;99.90;;;;;;5068764;28;20048;-76
2023/10/21 03:42:33;;;;;;;14.85;9.10;;;10.40;99.90;;;;;;5050477;28;20494;-75
2023/10/21 03:44:59;;;;;;;15.43;8.93;;;10.40;99.90;;;;;;5068672;28;20124;-75
2023/10/21 03:47:24;;;;;;;16.83;9.65;;;10.40;99.90;;;;;;5068851;28;20130;-76
2023/10/21 03:49:50;;;;;;;14.10;9.63;;;10.40;99.90;;;;;;5068839;28;20064;-76
2023/10/21 03:52:16;;;;;;;12.23;8.45;;;10.50;99.90;;;;;;5068484;28;20048;-75
2023/10/21 03:54:42;;;;;;;14.52;8.95;;;10.40;99.90;;;;;;5068642;28;20089;-75
2023/10/21 03:57:07;;;;;;;15.18;8.90;;;10.50;99.90;;;;;;5050280;28;20052;-76
2023/10/21 03:59:33;;;;;;;18.88;9.60;;;10.50;99.90;;;;;;5068475;28;20090;-76
2023/10/21 04:01:59;;;;;;;17.70;9.80;;;10.50;99.90;;;;;;5068560;28;20145;-76
2023/10/21 04:04:24;;;;;;;15.20;9.05;;;10.60;99.90;;;;;;5071611;28;20166;-77
2023/10/21 04:06:50;;;;;;;17.35;9.25;;;10.50;99.90;;;;;;5072008;28;20399;-76
2023/10/21 04:09:16;;;;;;;15.90;9.25;;;10.50;99.90;;;;;;5072398;28;20083;-76
2023/10/21 04:11:42;;;;;;;19.05;9.27;;;10.50;99.90;;;;;;5053975;28;20187;-75
2023/10/21 04:14:10;;;;;;;17.58;9.43;;;10.50;99.90;;;;;;5071926;28;20040;-75
2023/10/21 04:16:36;;;;;;;13.18;9.18;;;10.50;99.90;;;;;;5071763;28;20052;-76
2023/10/21 04:19:02;;;;;;;15.68;9.30;;;10.50;99.90;;;;;;5071796;28;20045;-74
2023/10/21 04:21:27;;;;;;;23.75;9.00;;;10.50;99.90;;;;;;5071560;28;20136;-74
2023/10/21 04:23:53;;;;;;;19.05;9.63;;;10.50;99.90;;;;;;5071564;28;20040;-74
2023/10/21 04:26:19;;;;;;;14.48;9.43;;;10.50;99.90;;;;;;5071411;28;20185;-76
2023/10/21 04:28:44;;;;;;;14.90;9.48;;;10.50;99.90;;;;;;5071487;28;20533;-75
2023/10/21 04:31:10;;;;;;;14.95;8.75;;;10.40;99.90;;;;;;5071596;28;20038;-75
2023/10/21 04:33:36;;;;;;;14.05;8.95;;;10.40;99.90;;;;;;5071631;28;20049;-75
2023/10/21 04:36:01;;;;;;;14.02;9.40;;;10.40;99.90;;;;;;5071355;28;20040;-75
2023/10/21 04:38:27;;;;;;;13.90;8.85;;;10.40;99.90;;;;;;5071079;28;20064;-75
2023/10/21 04:40:53;;;;;;;16.33;8.88;;;10.40;99.90;;;;;;5071100;28;20121;-74
2023/10/21 04:43:19;;;;;;;15.77;8.63;;;10.40;99.90;;;;;;5071324;28;20033;-76
2023/10/21 04:45:45;;;;;;;16.35;9.07;;;10.40;99.90;;;;;;5071121;28;20052;-74
2023/10/21 04:48:10;;;;;;;15.20;9.18;;;10.40;99.90;;;;;;5071179;28;20478;-77
2023/10/21 04:50:36;;;;;;;13.45;9.60;;;10.40;99.90;;;;;;5071024;28;20052;-75
2023/10/21 04:53:02;;;;;;;15.90;9.45;;;10.40;99.90;;;;;;5053034;28;20829;-75
2023/10/21 04:55:28;;;;;;;14.13;8.90;;;10.40;99.90;;;;;;5070911;28;20127;-75
2023/10/21 04:57:53;;;;;;;16.20;10.05;;;10.50;99.90;;;;;;5053221;28;20044;-76
2023/10/21 05:00:19;;;;;;;12.73;8.85;;;10.40;99.90;;;;;;5052703;28;20579;-75
2023/10/21 05:02:45;;;;;;;15.45;10.18;;;10.50;99.90;;;;;;5070951;28;20040;-76
2023/10/21 05:05:12;;;;;;;16.40;9.25;;;10.50;99.90;;;;;;5070831;28;20032;-75
2023/10/21 05:07:38;;;;;;;16.45;9.57;;;10.40;99.90;;;;;;5053085;28;20032;-75
2023/10/21 05:10:04;;;;;;;17.88;9.15;;;10.50;99.90;;;;;;5070614;28;20194;-75
2023/10/21 05:12:30;;;;;;;14.32;9.20;;;10.40;99.90;;;;;;5071208;28;20411;-75
2023/10/21 05:14:56;;;;;;;16.38;9.15;;;10.50;99.90;;;;;;5070605;28;20045;-76
2023/10/21 05:17:21;;;;;;;18.13;8.60;;;10.50;99.90;;;;;;5071133;28;20045;-74
2023/10/21 05:19:47;;;;;;;15.77;8.75;;;10.50;99.90;;;;;;5071057;28;20037;-75
2023/10/21 05:22:13;;;;;;;15.30;9.25;;;10.50;99.90;;;;;;5076603;28;20076;-75
2023/10/21 05:24:38;;;;;;;15.00;10.18;;;10.40;99.90;;;;;;5038476;28;20055;-75
2023/10/21 05:27:04;;;;;;;14.65;8.85;;;10.50;99.90;;;;;;5052660;28;20399;-76
2023/10/21 05:29:30;;;;;;;12.77;8.80;;;10.40;99.90;;;;;;5070525;28;20123;-74
2023/10/21 05:31:55;;;;;;;18.50;9.40;;;10.40;99.90;;;;;;5070233;28;20095;-75
2023/10/21 05:34:21;;;;;;;16.27;8.90;;;10.50;99.90;;;;;;5069929;28;20048;-75
2023/10/21 05:36:47;;;;;;;16.63;9.18;;;10.50;99.90;;;;;;5070040;28;20113;-76
2023/10/21 05:39:13;;;;;;;15.27;8.75;;;10.50;99.90;;;;;;5051868;28;20762;-75
2023/10/21 05:41:40;;;;;;;16.75;9.27;;;10.50;99.90;;;;;;5070215;28;20041;-74
2023/10/21 05:44:06;;;;;;;14.07;9.10;;;10.50;99.90;;;;;;5069941;28;20074;-76
2023/10/21 05:46:31;;;;;;;15.82;8.93;;;10.50;99.90;;;;;;5070036;28;20136;-75
2023/10/21 05:48:57;;;;;;;18.85;9.18;;;10.50;99.90;;;;;;5069862;28;20032;-76
2023/10/21 05:51:23;;;;;;;21.00;9.15;;;10.50;99.90;;;;;;5052191;28;20052;-75
2023/10/21 05:53:49;;;;;;;15.77;8.95;;;10.50;99.90;;;;;;5069936;28;20388;-76
2023/10/21 05:56:16;;;;;;;16.80;9.70;;;10.60;99.90;;;;;;5069892;28;20040;-75
2023/10/21 05:58:42;;;;;;;15.85;9.75;;;10.60;99.90;;;;;;5069773;28;20053;-75
2023/10/21 06:01:08;;;;;;;16.65;9.77;;;10.60;99.90;;;;;;5069814;28;20076;-76
2023/10/21 06:03:35;;;;;;;14.25;8.90;;;10.60;99.90;;;;;;5069466;28;20523;-77
2023/10/21 06:06:02;;;;;;;13.00;8.40;;;10.60;99.90;;;;;;5069756;28;20047;-75
2023/10/21 06:08:29;;;;;;;20.88;9.25;;;10.70;99.90;;;;;;5069262;28;20055;-76
2023/10/21 06:10:54;;;;;;;17.88;9.73;;;10.70;99.90;;;;;;5069571;28;20040;-76
2023/10/21 06:13:20;;;;;;;14.55;9.00;;;10.70;99.90;;;;;;5069610;28;20381;-75
2023/10/21 06:15:48;;;;;;;14.98;9.85;;;10.70;99.90;;;;;;5069513;28;20721;-74
2023/10/21 06:18:14;;;;;;;27.13;10.93;;;10.70;99.90;;;;;;5069478;28;20043;-78
2023/10/21 06:20:40;;;;;;;14.32;8.68;;;10.70;99.90;;;;;;5069478;28;20378;-76
2023/10/21 06:23:06;;;;;;;14.25;8.43;;;10.80;99.90;;;;;;5069425;28;20052;-77
2023/10/21 06:25:32;;;;;;;17.23;8.82;;;10.70;99.90;;;;;;5068748;28;20041;-76
2023/10/21 06:27:58;;;;;;;12.65;8.43;;;10.80;99.90;;;;;;5068901;28;20040;-77
2023/10/21 06:30:24;;;;;;;14.82;8.95;;;10.80;99.90;;;;;;5050964;28;20051;-76
2023/10/21 06:32:49;;;;;;;12.75;8.50;;;10.80;99.90;;;;;;5068593;28;20044;-77
2023/10/21 06:35:15;;;;;;;16.40;8.88;;;10.80;99.90;;;;;;5069011;28;20123;-76
2023/10/21 06:37:41;;;;;;;14.75;8.82;;;10.90;99.90;;;;;;5068900;28;20064;-76
2023/10/21 06:40:07;;;;;;;19.92;8.77;;;10.90;99.90;;;;;;5068865;28;20632;-77
2023/10/21 06:42:33;;;;;;;12.52;8.30;;;10.90;99.90;;;;;;5069125;28;20043;-77
2023/10/21 06:44:59;;;;;;;13.25;7.95;;;10.90;99.90;;;;;;5069381;28;20041;-76
2023/10/21 06:47:24;;;;;;;15.55;8.63;;;11.00;99.90;;;;;;5068987;28;20040;-77
2023/10/21 06:49:50;;;;;;;13.57;8.02;;;11.00;99.90;;;;;;5069417;28;20037;-77
2023/10/21 06:52:17;;;;;;;13.23;8.10;;;11.00;99.90;;;;;;5068882;28;20745;-77
2023/10/21 06:54:44;;;;;;;27.67;10.48;;;11.00;99.90;;;;;;5050976;28;20032;-76
2023/10/21 06:57:10;;;;;;;13.45;8.15;;;11.00;99.90;;;;;;5051292;28;20049;-77
2023/10/21 06:59:36;;;;;;;15.73;8.70;;;11.10;99.90;;;;;;5068960;28;20052;-75
2023/10/21 07:02:01;;;;;;;11.68;7.60;;;11.10;99.90;;;;;;5069098;28;20625;-77
2023/10/21 07:04:27;;;;;;;15.07;8.93;;;11.20;99.90;;;;;;5069131;28;20047;-77
2023/10/21 07:06:53;;;;;;;10.68;7.20;;;11.30;99.90;;;;;;5068937;28;20064;-77
2023/10/21 07:09:18;;;;;;;12.77;8.30;;;11.30;99.90;;;;;;5050926;28;20074;-77
2023/10/21 07:11:44;;;;;;;15.52;7.43;;;11.30;99.90;;;;;;5069044;28;20036;-79
2023/10/21 07:14:12;;;;;;;10.27;7.00;;;11.50;99.90;;;;;;5051151;28;20032;-76
2023/10/21 07:16:38;;;;;;;13.77;8.50;;;11.50;99.90;;;;;;5068824;28;20400;-78
2023/10/21 07:19:04;;;;;;;13.82;8.10;;;11.60;99.90;;;;;;5068341;28;20048;-78
2023/10/21 07:21:30;;;;;;;19.27;8.13;;;11.60;99.90;;;;;;5068351;28;20084;-76
2023/10/21 07:23:56;;;;;;;21.50;8.20;;;11.70;99.90;;;;;;5068667;28;20036;-75
2023/10/21 07:26:22;;;;;;;18.25;8.07;;;11.70;99.90;;;;;;5069016;28;20043;-77
2023/10/21 07:28:48;;;;;;;14.70;8.07;;;11.80;99.90;;;;;;5068678;28;20044;-77
2023/10/21 07:31:14;;;;;;;11.63;7.97;;;11.80;99.90;;;;;;5068518;28;20052;-76
2023/10/21 07:33:39;;;;;;;20.77;8.73;;;11.90;99.90;;;;;;5047005;28;20399;-77
2023/10/21 07:36:05;;;;;;;18.45;8.15;;;11.90;99.90;;;;;;5067867;28;20045;-76
2023/10/21 07:38:31;;;;;;;21.20;8.18;;;12.00;99.90;;;;;;5050878;28;20060;-76
2023/10/21 07:40:57;;;;;;;14.25;7.72;;;12.10;99.90;;;;;;5072113;28;20102;-76
2023/10/21 07:43:22;;;;;;;15.90;8.57;;;12.00;99.90;;;;;;5082171;28;20507;-77
2023/10/21 07:45:48;;;;;;;18.40;8.50;;;12.10;99.90;;;;;;5092625;28;20047;-76
2023/10/21 07:48:14;;;;;;;13.85;8.60;;;12.30;99.90;;;;;;5074599;28;20040;-79
2023/10/21 07:50:41;;;;;;;16.27;9.98;;;12.30;99.90;;;;;;5092719;28;20489;-77
2023/10/21 07:53:07;;;;;;;17.50;8.40;;;12.30;99.90;;;;;;5092563;28;20044;-78
2023/10/21 07:55:34;;;;;;;18.75;9.43;;;12.40;99.90;;;;;;5092579;28;20058;-77
2023/10/21 07:58:00;;;;;;;20.15;9.15;;;12.40;99.90;;;;;;5069323;28;20036;-77
2023/10/21 08:00:26;;;;;;;19.17;9.25;;;12.40;99.90;;;;;;5073238;28;20087;-77
2023/10/21 08:02:52;;;;;;;15.73;8.85;;;12.50;99.90;;;;;;5073580;28;20072;-77
2023/10/21 08:05:17;;;;;;;14.02;9.05;;;12.50;99.90;;;;;;5073697;28;20048;-77
2023/10/21 08:07:43;;;;;;;16.00;8.95;;;12.50;99.90;;;;;;5073192;28;20040;-78
2023/10/21 08:10:09;;;;;;;15.23;8.50;;;12.50;99.90;;;;;;5072342;28;20106;-77
2023/10/21 08:12:35;;;;;;;17.58;8.02;;;12.60;99.90;;;;;;5072718;28;20075;-77
2023/10/21 08:15:07;;;;;;;17.02;8.45;;;12.60;99.90;;;;;;5072532;28;20117;-77
2023/10/21 08:17:33;;;;;;;14.15;7.72;;;12.60;99.90;;;;;;5078179;28;20048;-79
2023/10/21 08:19:59;;;;;;;12.48;7.35;;;12.60;99.90;;;;;;5080615;28;20040;-77
2023/10/21 08:22:24;;;;;;;17.45;8.43;;;12.70;99.90;;;;;;5075783;28;20101;-81
2023/10/21 08:24:50;;;;;;;11.05;8.32;;;12.80;99.90;;;;;;5072910;28;20152;-79
2023/10/21 08:27:16;;;;;;;11.80;7.65;;;12.80;99.90;;;;;;5071764;28;20842;-77
2023/10/21 08:29:42;;;;;;;13.13;7.32;;;12.80;99.90;;;;;;5071728;28;20048;-77
2023/10/21 08:32:08;;;;;;;13.68;7.50;;;12.80;99.90;;;;;;5071514;28;20032;-79
2023/10/21 08:34:36;;;;;;;21.73;8.05;;;12.90;99.90;;;;;;5071754;28;20074;-78
2023/10/21 08:37:03;;;;;;;15.27;7.50;;;12.90;99.90;;;;;;5079253;28;20131;-75
2023/10/21 08:39:29;;;;;;;11.57;6.82;;;13.00;99.90;;;;;;5080398;28;20048;-79
2023/10/21 08:41:55;;;;;;;17.75;7.93;;;13.10;99.90;;;;;;5072269;28;20051;-78
2023/10/21 08:44:22;;;;;;;12.48;7.40;;;13.00;99.90;;;;;;5071063;28;20032;-77
2023/10/21 08:46:49;;;;;;;12.80;7.30;;;13.10;99.90;;;;;;5071041;28;20044;-77
2023/10/21 08:49:17;;;;;;;13.63;7.53;;;13.10;99.90;;;;;;5052528;28;20109;-77
2023/10/21 08:51:45;;;;;;;12.23;7.43;;;13.20;99.90;;;;;;5068526;28;20087;-79
2023/10/21 08:54:12;;;;;;;16.48;7.18;;;13.20;99.90;;;;;;5071081;28;20040;-77
2023/10/21 08:56:38;;;;;;;15.68;7.65;;;13.30;99.90;;;;;;5071065;28;20377;-79
2023/10/21 08:59:04;;;;;;;12.27;6.63;;;13.30;99.90;;;;;;5052331;28;20032;-80
2023/10/21 09:01:29;;;;;;;16.92;7.90;;;13.30;99.90;;;;;;5070881;28;20067;-77
2023/10/21 09:03:56;;;;;;;9.18;6.70;;;13.40;99.90;;;;;;5070337;28;20138;-78
2023/10/21 09:06:21;;;;;;;9.32;6.90;;;13.40;99.90;;;;;;5070582;28;20033;-77
2023/10/21 09:08:48;;;;;;;7.57;5.95;;;13.40;99.90;;;;;;5070424;28;20035;-78
2023/10/21 09:11:16;;;;;;;12.50;5.97;;;13.40;99.90;;;;;;5052481;28;20138;-77
2023/10/21 09:13:42;;;;;;;11.07;5.40;;;13.50;99.90;;;;;;5035913;28;20126;-77
2023/10/21 09:16:29;;;;;;;9.55;5.45;;;13.50;99.90;;;;;;5069974;28;20036;-76
2023/10/21 09:19:03;;;;;;;12.00;5.68;;;13.50;99.90;;;;;;5067895;28;20051;-76
2023/10/21 09:21:33;;;;;;;10.23;4.75;;;13.60;99.90;;;;;;5050242;28;20040;-79
2023/10/21 09:24:12;;;;;;;11.18;5.28;;;13.60;99.90;;;;;;5034239;28;20512;-77
2023/10/21 09:26:42;;;;;;;13.63;5.50;;;13.60;99.90;;;;;;5070314;28;20493;-78
2023/10/21 09:29:13;;;;;;;7.47;4.15;;;13.50;99.90;;;;;;5069897;28;20072;-78
2023/10/21 09:31:53;;;;;;;7.88;3.90;;;13.50;99.90;;;;;;5052494;28;20055;-79
2023/10/21 09:34:30;;;;;;;6.85;4.55;;;13.50;99.90;;;;;;5069978;28;20033;-79
2023/10/21 09:36:58;;;;;;;6.93;3.35;;;13.50;99.90;;;;;;5070000;28;20044;-78
2023/10/21 09:39:26;;;;;;;4.68;3.22;;;13.50;99.90;;;;;;5069783;28;20059;-78
2023/10/21 09:41:52;;;;;;;9.50;3.58;;;13.50;99.90;;;;;;5051806;28;20053;-79
2023/10/21 09:44:19;;;;;;;3.78;2.72;;;13.50;99.90;;;;;;5069448;28;20040;-77
2023/10/21 09:46:46;;;;;;;7.30;2.90;;;13.50;99.90;;;;;;5069589;28;20067;-77
2023/10/21 09:49:14;;;;;;;3.65;2.20;;;13.50;99.90;;;;;;5069583;28;20076;-76
2023/10/21 09:52:05;;;;;;;3.15;2.47;;;13.40;99.90;;;;;;5069784;28;20040;-75
2023/10/21 09:54:36;;;;;;;4.53;2.53;;;13.50;99.90;;;;;;5069401;28;20040;-76
2023/10/21 09:57:04;;;;;;;2.58;2.28;;;13.50;99.90;;;;;;5069784;28;20060;-74
2023/10/21 09:59:31;;;;;;;4.28;2.58;;;13.40;99.90;;;;;;5067559;28;20036;-77
2023/10/21 10:01:58;;;;;;;5.03;2.83;;;13.40;99.90;;;;;;5068640;28;20542;-75
2023/10/21 10:04:26;;;;;;;5.05;3.22;;;13.40;99.90;;;;;;5069283;28;20036;-75
2023/10/21 10:06:58;;;;;;;3.13;2.30;;;13.40;99.90;;;;;;5069296;28;20079;-75
2023/10/21 10:09:28;;;;;;;3.30;2.30;;;13.40;99.90;;;;;;5068833;28;20064;-74
2023/10/21 10:12:01;;;;;;;1.70;1.60;;;13.40;99.90;;;;;;5069583;28;20043;-75
2023/10/21 10:14:30;;;;;;;2.78;1.60;;;13.40;99.90;;;;;;5068909;28;20603;-76
2023/10/21 10:16:56;;;;;;;3.65;1.50;;;13.40;99.90;;;;;;5069211;28;20040;-75
2023/10/21 10:19:43;;;;;;;6.03;1.10;;;13.40;99.90;;;;;;5068901;28;20047;-76
2023/10/21 10:22:30;;;;;;;1.33;1.13;;;13.40;99.90;;;;;;5069252;28;20033;-76
2023/10/21 10:25:10;;;;;;;1.65;1.20;;;13.40;99.90;;;;;;5050743;28;20056;-76
2023/10/21 10:27:40;;;;;;;1.85;1.23;;;13.40;99.90;;;;;;5069339;28;20116;-77
2023/10/21 10:30:32;;;;;;;1.33;1.20;;;13.50;99.90;;;;;;5068807;28;20091;-78
2023/10/21 10:33:06;;;;;;;1.73;1.10;;;13.50;99.90;;;;;;5050920;28;20399;-78
2023/10/21 10:35:41;;;;;;;4.70;1.30;;;13.60;99.90;;;;;;5068727;28;20052;-78
2023/10/21 10:38:26;;;;;;;3.15;1.13;;;13.60;99.90;;;;;;5047325;28;20060;-80
2023/10/21 10:41:06;;;;;;;1.17;1.00;;;13.60;99.90;;;;;;5048757;28;20463;-78
2023/10/21 10:43:32;;;;;;;2.55;2.08;;;13.60;99.90;;;;;;5047516;28;20044;-78
2023/10/21 10:46:00;;;;;;;2.88;1.20;;;13.60;99.90;;;;;;5049211;28;20052;-78
2023/10/21 10:48:29;;;;;;;1.73;1.63;;;13.60;99.90;;;;;;5049491;28;20037;-77
2023/10/21 10:51:00;;;;;;;1.23;1.00;;;13.70;99.90;;;;;;5049182;28;20116;-80
2023/10/21 10:53:26;;;;;;;1.63;0.95;;;13.70;99.90;;;;;;5049550;28;20458;-76
2023/10/21 10:55:56;;;;;;;1.90;1.50;;;13.80;99.90;;;;;;5049328;28;20049;-76
2023/10/21 10:58:23;;;;;;;2.65;1.38;;;13.80;99.90;;;;;;5047494;28;20147;-76
2023/10/21 11:00:51;;;;;;;1.40;1.00;;;13.90;99.90;;;;;;5049089;28;20053;-76
2023/10/21 11:03:31;;;;;;;3.88;1.48;;;13.80;99.90;;;;;;5048851;28;20546;-76
2023/10/21 11:05:58;;;;;;;1.30;1.20;;;13.90;99.90;;;;;;5047552;28;20521;-76
2023/10/21 11:08:24;;;;;;;3.65;0.88;;;13.90;99.90;;;;;;5049630;28;20049;-76
2023/10/21 11:10:53;;;;;;;1.15;0.85;;;14.00;99.90;;;;;;5049455;28;20159;-76
2023/10/21 11:13:22;;;;;;;4.03;1.30;;;14.00;99.90;;;;;;5050669;28;20431;-76
2023/10/21 11:15:51;;;;;;;1.88;0.90;;;13.90;99.90;;;;;;5057661;28;20055;-76
2023/10/21 11:18:18;;;;;;;3.17;0.90;;;14.00;99.90;;;;;;5060725;28;20049;-76
2023/10/21 11:20:51;;;;;;;2.20;1.08;;;13.90;99.90;;;;;;5053213;28;20400;-76
2023/10/21 11:23:19;;;;;;;1.30;0.95;;;13.90;99.90;;;;;;5052676;28;20171;-76
2023/10/21 11:25:51;;;;;;;1.90;0.90;;;13.90;99.90;;;;;;5052476;28;20550;-77
2023/10/21 11:28:17;;;;;;;3.85;0.93;;;13.90;99.90;;;;;;5052525;28;20052;-76
2023/10/21 11:30:44;;;;;;;1.13;1.08;;;13.90;99.90;;;;;;5052590;28;20068;-76
2023/10/21 11:33:10;;;;;;;3.05;1.13;;;13.90;99.90;;;;;;5052813;28;20049;-76
2023/10/21 11:35:44;;;;;;;1.75;0.85;;;13.80;99.90;;;;;;5051512;28;20052;-75
2023/10/21 11:38:17;;;;;;;1.63;0.73;;;13.80;99.90;;;;;;5062628;28;20092;-76
2023/10/21 11:40:44;;;;;;;0.95;0.70;;;13.70;99.90;;;;;;5072259;28;20470;-76
2023/10/21 11:43:14;;;;;;;4.45;1.42;;;13.70;99.90;;;;;;5072692;28;20494;-76
2023/10/21 11:45:41;;;;;;;2.03;1.10;;;13.80;99.90;;;;;;5072490;28;20076;-76
2023/10/21 11:48:10;;;;;;;1.52;1.00;;;13.70;99.90;;;;;;5072484;28;20133;-77
2023/10/21 11:50:47;;;;;;;2.65;1.08;;;13.70;99.90;;;;;;5072301;28;20064;-77
2023/10/21 11:53:13;;;;;;;2.00;1.05;;;13.70;99.90;;;;;;5054239;28;20800;-78
2023/10/21 12:18:04;;;;;;;2.35;1.27;;;13.80;99.90;;;;;;5071869;28;20059;-77
2023/10/21 12:36:33;;;;;;;3.72;1.35;;;14.00;99.90;;;;;;5071860;28;20052;-78
2023/10/21 12:41:53;;;;;;;2.00;1.08;;;14.20;99.90;;;;;;5071507;28;20634;-78
2023/10/21 12:44:23;;;;;;;2.08;1.05;;;14.30;99.90;;;;;;5051598;28;20040;-78
2023/10/21 12:46:55;;;;;;;1.88;0.90;;;14.40;99.90;;;;;;5071269;28;20069;-77
2023/10/21 12:49:24;;;;;;;4.25;1.15;;;14.30;99.90;;;;;;5071019;28;20059;-77
2023/10/21 12:51:52;;;;;;;3.25;0.90;;;14.40;99.90;;;;;;5070797;28;20115;-77
2023/10/21 12:54:17;;;;;;;1.65;0.80;;;14.40;99.90;;;;;;5052544;28;20101;-77
2023/10/21 12:56:43;;;;;;;4.50;1.10;;;14.50;99.90;;;;;;5071287;28;20435;-78
2023/10/21 12:59:09;;;;;;;1.42;1.05;;;14.50;99.90;;;;;;5052875;28;20032;-79
2023/10/21 13:01:38;;;;;;;4.20;0.90;;;14.60;99.90;;;;;;5071232;28;20383;-78
2023/10/21 13:04:04;;;;;;;2.50;0.80;;;14.60;99.90;;;;;;5072250;28;20434;-78
2023/10/21 13:06:31;;;;;;;1.98;0.88;;;14.60;99.90;;;;;;5070693;28;20755;-80
2023/10/21 13:08:56;;;;;;;2.15;0.80;;;14.60;99.90;;;;;;5071015;28;20045;-79
2023/10/21 13:11:22;;;;;;;1.60;0.75;;;14.60;99.90;;;;;;5070991;28;20408;-79
2023/10/21 13:13:50;;;;;;;2.00;0.70;;;14.60;99.90;;;;;;5071077;28;20041;-78
2023/10/21 13:16:19;;;;;;;7.05;1.23;;;14.60;99.90;;;;;;5070894;28;20555;-76
2023/10/21 13:18:44;;;;;;;3.60;0.80;;;14.60;99.90;;;;;;5052692;28;20036;-79